Akron Canton Regional Airport
KCAK : now visible

Airfield :











YOU CAN JOIN US ON...

 
LOGIN :

Register | Disclaimer

   EN    FR    IT 

 









Legend :    VFR   Marginal VFR   IFR   Intensive IFR   Very Intensive IFR
Visi :
Ceiling :
>= 8 km
>= 3000ft
5 to 8 km
1000 to 3000 ft
1500m to 5 km
500 to 1000 ft
800 to 1500m
200 to 500 ft
< 800m
< 200 ft
Symbols :   Thunderstorms  Fog  Heavy snow  Heavy precipitations  Wind > 20 kt







- Airport Elevation : 1228 ft
- IATA code : CAK


KCAK - Akron Canton Regional

CURRENT METAR :
  • 211351Z 22007KT 8SM OVC009 08/04 A3002 RMK AO2 DZB23E35 SLP172 P0000 T00780044

EXPIRED METARs :
  • 211251Z 24007KT 7SM OVC008 07/04 A3001 RMK AO2 DZE05 SLP166 P0000 T00720044
  • 211238Z 25006KT 7SM BKN008 OVC016 07/04 A3000 RMK AO2 DZE05 P0000 T00720044
  • 211211Z 25004KT 6SM BR SCT005 OVC015 07/04 A3000 RMK AO2 DZE05 P0000 T00670044
  • 211151Z 26005KT 4SM -DZ BKN005 OVC015 07/04 A2999 RMK AO2 DZB27 SLP159 P0000 60000 T00670044 10067 20061 53032
  • 211133Z 27005KT 2SM -DZ OVC006 07/04 A2998 RMK AO2 DZB27 P0000 T00670044
  • 211112Z 24003KT 3SM BR BKN006 OVC012 07/04 A2997 RMK AO2 T00670044

TAF KCAK
Valid from the 21 at 14:00 until the 22 at 12:00 UTC


211332Z 2114/2212 25006KT P6SM SCT008 BKN015
TEMPO 2114/2116 OVC008
FM211800 26006KT P6SM BKN025
FM212200 28004KT P6SM BKN035
FM220200 VRB03KT P6SM SCT060
KZOB FIR / North America



MET'MAP, your aeronautical weather chart ! - Copyright ORBIFLY December 2007 - Disclaimer

ORBIFLY MET'MAP TEAM :

Programming & Development : Alexandra Zaïnal
Concept & Development : Baudouin d'Aumeries
Co-Development & Prog : Marc-Olivier Méhu
Technical & hardware support : Manuel Goepfert

Contact : metmap@orbifly.com




SOURCES & CREDITS :

   NOAA       Earth
Advisory